createdAt,value
2018-09-04T00:00:14.213Z,101032.18
2018-09-04T00:02:42.429Z,101040.98
2018-09-04T00:05:10.661Z,101042.88
2018-09-04T00:07:38.872Z,101033.13
2018-09-04T00:10:07.771Z,101027.37
2018-09-04T00:12:36.504Z,101028.65
2018-09-04T00:15:04.755Z,101025.78
2018-09-04T00:17:32.960Z,101029.03
2018-09-04T00:20:01.440Z,101018.96
2018-09-04T00:22:29.652Z,101021.62
2018-09-04T00:24:57.928Z,101024.61
2018-09-04T00:27:26.166Z,101025.88
2018-09-04T00:29:54.375Z,101029.70
2018-09-04T00:32:22.604Z,101025.05
2018-09-04T00:34:50.838Z,101033.38
2018-09-04T00:37:19.085Z,101039.25
2018-09-04T00:39:47.618Z,101039.41
2018-09-04T00:42:15.863Z,101043.02
2018-09-04T00:44:44.072Z,101036.86
2018-09-04T00:47:12.309Z,101041.55
2018-09-04T00:49:40.548Z,101042.16
2018-09-04T00:52:08.789Z,101036.52
2018-09-04T00:54:37.034Z,101038.31
2018-09-04T00:57:05.269Z,101037.84
2018-09-04T00:59:33.500Z,101037.08
2018-09-04T01:02:01.796Z,101036.20
2018-09-04T01:04:30.024Z,101031.97
2018-09-04T01:06:58.256Z,101034.92
2018-09-04T01:09:26.483Z,101031.01
2018-09-04T01:11:54.727Z,101032.19
2018-09-04T01:14:22.936Z,101032.73
2018-09-04T01:16:51.176Z,101035.77
2018-09-04T01:19:19.399Z,101034.91
2018-09-04T01:21:47.647Z,101032.73
2018-09-04T01:24:15.864Z,101037.92
2018-09-04T01:26:44.109Z,101032.27
2018-09-04T01:29:12.352Z,101037.82
2018-09-04T01:31:40.569Z,101038.16
2018-09-04T01:34:08.800Z,101025.06
2018-09-04T01:36:37.004Z,101027.66
2018-09-04T01:39:06.880Z,101035.55
2018-09-04T01:41:35.129Z,101036.52
2018-09-04T01:44:03.380Z,101034.02
2018-09-04T01:46:31.591Z,101038.80
2018-09-04T01:48:59.828Z,101037.80
2018-09-04T01:51:28.052Z,101042.04
2018-09-04T01:53:56.306Z,101036.00
2018-09-04T01:56:24.524Z,101044.66
2018-09-04T01:58:52.759Z,101044.86
2018-09-04T02:01:21.003Z,101037.50
2018-09-04T02:03:49.227Z,101037.50
2018-09-04T02:06:17.495Z,101034.54
2018-09-04T02:08:45.720Z,101029.66
2018-09-04T02:11:13.936Z,101028.05
2018-09-04T02:13:42.180Z,101030.69
2018-09-04T02:16:10.403Z,101028.19
2018-09-04T02:18:38.655Z,101025.24
2018-09-04T02:21:06.867Z,101022.77
2018-09-04T02:23:35.108Z,101019.77
2018-09-04T02:26:03.304Z,101023.30
2018-09-04T02:28:31.512Z,101016.48
2018-09-04T02:30:59.756Z,101017.88
2018-09-04T02:33:27.976Z,101010.92
2018-09-04T02:35:56.224Z,101015.58
2018-09-04T02:38:24.436Z,101016.41
2018-09-04T02:40:52.680Z,101020.06
2018-09-04T02:43:20.900Z,101015.39
2018-09-04T02:45:49.176Z,101012.42
2018-09-04T02:48:17.392Z,101007.18
2018-09-04T02:50:45.676Z,101014.09
2018-09-04T02:53:13.912Z,101011.42
2018-09-04T02:55:42.161Z,101005.53
2018-09-04T02:58:10.702Z,101005.61
2018-09-04T03:00:38.944Z,101007.48
2018-09-04T03:03:07.173Z,101010.95
2018-09-04T03:05:35.487Z,101013.19
2018-09-04T03:08:03.697Z,101017.59
2018-09-04T03:10:31.980Z,101015.52
2018-09-04T03:13:00.202Z,101018.60
2018-09-04T03:15:28.539Z,101016.58
2018-09-04T03:17:56.912Z,101025.27
2018-09-04T03:20:25.160Z,101021.72
2018-09-04T03:22:53.657Z,101022.53
2018-09-04T03:25:21.977Z,101025.20
2018-09-04T03:27:50.256Z,101025.20
2018-09-04T03:30:18.470Z,101015.28
2018-09-04T03:32:46.745Z,101014.03
2018-09-04T03:35:15.040Z,101014.16
2018-09-04T03:37:43.320Z,101006.81
2018-09-04T03:40:11.609Z,101008.19
2018-09-04T03:42:39.906Z,101008.25
2018-09-04T03:45:08.543Z,101004.31
2018-09-04T03:47:36.833Z,101003.41
2018-09-04T03:50:06.584Z,101007.77
2018-09-04T03:52:35.122Z,101010.84
2018-09-04T03:55:03.378Z,101015.52
2018-09-04T03:57:31.624Z,101017.67
2018-09-04T03:59:59.945Z,101019.41
2018-09-04T04:02:28.832Z,101016.56
2018-09-04T04:04:57.072Z,101017.95
2018-09-04T04:07:25.313Z,101018.47
2018-09-04T04:09:53.539Z,101014.23
2018-09-04T04:12:21.792Z,101013.86
2018-09-04T04:14:50.019Z,101017.76
2018-09-04T04:17:18.301Z,101020.44
2018-09-04T04:19:46.519Z,101020.44
2018-09-04T04:22:14.752Z,101023.91
2018-09-04T04:24:42.972Z,101023.02
2018-09-04T04:27:11.231Z,101026.13
2018-09-04T04:29:39.448Z,101030.44
2018-09-04T04:32:07.712Z,101031.36
2018-09-04T04:34:35.968Z,101036.05
2018-09-04T04:37:04.239Z,101037.28
2018-09-04T04:39:32.488Z,101034.17
2018-09-04T04:42:00.700Z,101028.40
2018-09-04T04:44:28.941Z,101034.82
2018-09-04T04:46:57.311Z,101029.61
2018-09-04T04:49:25.555Z,101031.72
2018-09-04T04:51:53.774Z,101030.81
2018-09-04T04:54:22.043Z,101028.59
2018-09-04T04:56:50.270Z,101032.03
2018-09-04T04:59:18.543Z,101033.70
2018-09-04T05:01:46.765Z,101034.61
2018-09-04T05:04:15.016Z,101039.73
2018-09-04T05:06:44.075Z,101044.48
2018-09-04T05:09:12.320Z,101039.66
2018-09-04T05:11:40.677Z,101037.92
2018-09-04T05:14:08.804Z,101035.68
2018-09-04T05:16:37.044Z,101040.77
2018-09-04T05:19:05.420Z,101040.27
2018-09-04T05:21:33.643Z,101045.00
2018-09-04T05:24:01.878Z,101043.70
2018-09-04T05:26:30.104Z,101046.75
2018-09-04T05:28:58.356Z,101046.73
2018-09-04T05:31:26.752Z,101045.33
2018-09-04T05:33:54.971Z,101047.41
2018-09-04T05:36:23.237Z,101047.41
2018-09-04T05:38:51.456Z,101047.85
2018-09-04T05:41:20.080Z,101042.93
2018-09-04T05:43:51.171Z,101042.19
2018-09-04T05:48:58.822Z,101045.80
2018-09-04T05:51:27.195Z,101046.48
2018-09-04T05:53:55.844Z,101054.39
2018-09-04T05:56:24.209Z,101049.27
2018-09-04T05:58:52.440Z,101050.73
2018-09-04T06:01:20.854Z,101052.43
2018-09-04T06:03:49.148Z,101045.72
2018-09-04T06:06:17.390Z,101044.98
2018-09-04T06:08:45.624Z,101049.75
2018-09-04T06:11:13.852Z,101043.25
2018-09-04T06:13:42.089Z,101044.52
2018-09-04T06:16:10.333Z,101049.03
2018-09-04T06:18:38.532Z,101039.22
2018-09-04T06:21:06.778Z,101050.03
2018-09-04T06:23:34.995Z,101047.09
2018-09-04T06:26:03.241Z,101049.42
2018-09-04T06:28:31.455Z,101048.73
2018-09-04T06:30:59.712Z,101051.78
2018-09-04T06:33:27.927Z,101051.38
2018-09-04T06:35:56.204Z,101050.45
2018-09-04T06:38:24.427Z,101042.81
2018-09-04T06:40:52.637Z,101050.72
2018-09-04T06:43:20.882Z,101047.88
2018-09-04T06:45:49.109Z,101053.19
2018-09-04T06:48:17.353Z,101047.13
2018-09-04T06:50:45.568Z,101053.08
2018-09-04T06:53:13.833Z,101055.28
2018-09-04T06:55:42.036Z,101053.85
2018-09-04T06:58:10.272Z,101031.03
2018-09-04T07:00:38.473Z,101052.00
2018-09-04T07:03:06.708Z,101051.52
2018-09-04T07:05:34.911Z,101048.85
2018-09-04T07:08:03.141Z,101052.67
2018-09-04T07:10:31.356Z,101058.89
2018-09-04T07:12:59.612Z,101063.70
2018-09-04T07:15:27.852Z,101062.32
2018-09-04T07:17:56.089Z,101066.23
2018-09-04T07:20:24.375Z,101066.70
2018-09-04T07:22:52.629Z,101074.45
2018-09-04T07:25:20.876Z,101078.42
2018-09-04T07:27:49.118Z,101087.34
2018-09-04T07:30:17.349Z,101082.23
2018-09-04T07:32:45.580Z,101079.78
2018-09-04T07:35:13.792Z,101080.84
2018-09-04T07:37:42.020Z,101083.66
2018-09-04T07:40:10.259Z,101089.74
2018-09-04T07:42:38.527Z,101096.14
2018-09-04T07:45:08.171Z,101089.66
2018-09-04T07:47:36.440Z,101096.45
2018-09-04T07:50:04.700Z,101096.34
2018-09-04T07:52:32.911Z,101091.51
2018-09-04T07:55:01.181Z,101094.73
2018-09-04T07:57:29.400Z,101090.74
2018-09-04T07:59:57.632Z,101088.73
2018-09-04T08:02:25.847Z,101089.86
2018-09-04T08:04:54.080Z,101091.71
2018-09-04T08:07:22.332Z,101094.54
2018-09-04T08:09:50.568Z,101089.06
2018-09-04T08:12:18.809Z,101093.27
2018-09-04T08:14:47.059Z,101091.08
2018-09-04T08:17:15.277Z,101091.85
2018-09-04T08:19:43.524Z,101092.56
2018-09-04T08:22:11.740Z,101093.75
2018-09-04T08:24:39.963Z,101091.14
2018-09-04T08:27:08.172Z,101090.70
2018-09-04T08:29:36.420Z,101098.39
2018-09-04T08:32:04.640Z,101094.40
2018-09-04T08:34:32.915Z,101097.30
2018-09-04T08:37:01.142Z,101096.34
2018-09-04T08:39:29.391Z,101100.66
2018-09-04T08:41:57.600Z,101098.03
2018-09-04T08:44:25.839Z,101093.32
2018-09-04T08:46:54.054Z,101099.77
2018-09-04T08:49:22.296Z,101101.43
2018-09-04T08:51:50.520Z,101098.44
2018-09-04T08:54:18.787Z,101096.34
2018-09-04T08:56:47.020Z,101088.36
2018-09-04T08:59:15.245Z,101090.80
2018-09-04T09:01:43.493Z,101086.77
2018-09-04T09:04:11.747Z,101085.57
2018-09-04T09:06:39.952Z,101090.36
2018-09-04T09:09:09.256Z,101091.98
2018-09-04T09:11:37.509Z,101092.25
2018-09-04T09:14:05.743Z,101084.86
2018-09-04T09:16:33.973Z,101081.22
2018-09-04T09:19:02.187Z,101081.05
2018-09-04T09:21:30.440Z,101076.17
2018-09-04T09:23:58.652Z,101077.50
2018-09-04T09:26:26.900Z,101076.91
2018-09-04T09:28:55.120Z,101078.25
2018-09-04T09:31:23.384Z,101073.73
2018-09-04T09:33:51.608Z,101071.01
2018-09-04T09:36:19.840Z,101073.95
2018-09-04T09:38:48.063Z,101067.22
2018-09-04T09:41:16.292Z,101072.16
2018-09-04T09:43:44.521Z,101064.84
2018-09-04T09:46:12.765Z,101067.75
2018-09-04T09:48:42.032Z,101064.40
2018-09-04T09:51:11.428Z,101059.30
2018-09-04T09:53:40.362Z,101065.88
2018-09-04T09:56:09.487Z,101061.98
2018-09-04T09:58:38.009Z,101060.95
2018-09-04T10:01:11.820Z,101063.06
2018-09-04T10:03:45.484Z,101063.22
2018-09-04T10:06:13.734Z,101064.88
2018-09-04T10:08:41.967Z,101060.45
2018-09-04T10:11:10.306Z,101062.42
2018-09-04T10:13:38.507Z,101058.45
2018-09-04T10:16:06.763Z,101058.65
2018-09-04T10:18:35.201Z,101059.55
2018-09-04T10:21:03.480Z,101051.61
2018-09-04T10:23:32.031Z,101056.89
2018-09-04T10:26:00.296Z,101056.20
2018-09-04T10:28:28.518Z,101052.87
2018-09-04T10:30:56.772Z,101050.17
2018-09-04T10:33:25.024Z,101048.75
2018-09-04T10:35:53.280Z,101044.67
2018-09-04T10:38:24.410Z,101041.39
2018-09-04T10:40:55.142Z,101034.46
2018-09-04T10:43:27.030Z,101033.64
2018-09-04T10:46:00.754Z,101029.59
2018-09-04T10:48:29.660Z,101033.45
2018-09-04T10:50:57.940Z,101029.47
2018-09-04T10:53:26.393Z,101025.55
2018-09-04T10:55:54.716Z,101024.19
2018-09-04T10:58:23.008Z,101029.80
2018-09-04T11:00:51.272Z,101027.00
2018-09-04T11:03:19.509Z,101024.72
2018-09-04T11:05:47.789Z,101017.22
2018-09-04T11:08:16.026Z,101016.09
2018-09-04T11:10:44.285Z,101008.86
2018-09-04T11:13:12.539Z,101014.27
2018-09-04T11:15:40.820Z,101010.54
2018-09-04T11:18:09.065Z,101009.84
2018-09-04T11:20:37.304Z,101016.13
2018-09-04T11:23:05.625Z,100995.03
2018-09-04T11:25:33.896Z,101009.72
2018-09-04T11:28:02.148Z,101012.86
2018-09-04T11:30:30.438Z,101016.66
2018-09-04T11:32:58.657Z,101016.08
2018-09-04T11:35:26.889Z,101002.64
2018-09-04T11:37:55.129Z,101009.06
2018-09-04T11:40:23.356Z,100999.08
2018-09-04T11:42:51.703Z,101008.14
2018-09-04T11:45:19.942Z,101005.40
2018-09-04T11:47:48.177Z,101006.48
2018-09-04T11:50:16.408Z,101007.30
2018-09-04T11:52:44.664Z,101007.48
2018-09-04T11:55:13.255Z,101002.00
2018-09-04T11:57:42.060Z,101007.33
2018-09-04T12:00:15.541Z,101006.50
2018-09-04T12:02:43.904Z,101005.53
2018-09-04T12:05:12.141Z,101006.90
2018-09-04T12:07:40.426Z,101008.14
2018-09-04T12:10:08.823Z,101011.57
2018-09-04T12:12:37.253Z,101005.70
2018-09-04T12:15:05.501Z,101001.52
2018-09-04T12:17:33.747Z,101005.77
2018-09-04T12:20:48.273Z,101011.97
2018-09-04T12:23:16.497Z,101002.16
2018-09-04T12:25:45.816Z,100998.34
2018-09-04T12:28:14.129Z,101001.66
2018-09-04T12:30:42.376Z,100998.67
2018-09-04T12:33:10.651Z,101004.48
2018-09-04T12:35:38.888Z,101001.81
2018-09-04T12:38:08.684Z,100998.57
2018-09-04T12:40:36.929Z,100999.98
2018-09-04T12:43:05.269Z,101005.98
2018-09-04T12:45:38.774Z,101000.34
2018-09-04T12:48:07.123Z,100995.98
2018-09-04T12:50:35.876Z,100992.53
2018-09-04T12:53:04.796Z,100997.11
2018-09-04T12:55:33.120Z,100993.31
2018-09-04T12:58:01.385Z,100994.48
2018-09-04T13:00:29.624Z,100996.02
2018-09-04T13:02:57.885Z,100992.85
2018-09-04T13:05:26.116Z,100997.25
2018-09-04T13:07:54.361Z,100996.42
2018-09-04T13:10:23.673Z,100987.52
2018-09-04T13:12:52.017Z,100991.31
2018-09-04T13:15:20.257Z,100991.84
2018-09-04T13:17:48.619Z,100989.67
2018-09-04T13:20:16.856Z,100992.86
2018-09-04T13:22:45.101Z,100999.65
2018-09-04T13:25:13.348Z,100996.65
2018-09-04T13:27:41.592Z,100990.14
2018-09-04T13:30:09.846Z,100960.25
2018-09-04T13:32:38.764Z,100984.03
2018-09-04T13:35:07.041Z,100985.19
2018-09-04T13:37:35.296Z,100985.13
2018-09-04T13:40:03.880Z,100982.69
2018-09-04T13:42:32.989Z,100983.98
2018-09-04T13:45:01.208Z,100987.14
2018-09-04T13:47:30.944Z,100985.83
2018-09-04T13:49:59.286Z,100982.58
2018-09-04T13:52:28.788Z,100986.76
2018-09-04T13:54:58.093Z,100988.30
2018-09-04T13:57:26.888Z,100982.87
2018-09-04T13:59:55.136Z,100982.58
2018-09-04T14:02:23.406Z,100983.66
2018-09-04T14:04:51.649Z,100984.11
2018-09-04T14:07:19.880Z,100983.66
2018-09-04T14:09:48.213Z,100986.92
2018-09-04T14:12:16.453Z,100978.42
2018-09-04T14:14:44.703Z,100978.11
2018-09-04T14:17:16.300Z,100984.59
2018-09-04T14:19:44.820Z,100982.34
2018-09-04T14:22:13.141Z,100976.53
2018-09-04T14:24:41.394Z,100977.15
2018-09-04T14:27:09.660Z,100974.62
2018-09-04T14:29:53.773Z,100977.48
2018-09-04T14:32:06.232Z,100974.67
2018-09-04T14:34:34.476Z,100971.35
2018-09-04T14:37:02.811Z,100971.67
2018-09-04T14:39:30.961Z,100974.62
2018-09-04T14:41:59.183Z,100965.50
2018-09-04T14:44:27.480Z,100973.84
2018-09-04T14:46:55.709Z,100975.92
2018-09-04T14:49:23.977Z,100971.89
2018-09-04T14:51:52.205Z,100968.87
2018-09-04T14:54:20.496Z,100969.33
2018-09-04T14:56:48.731Z,100981.11
2018-09-04T14:59:16.982Z,100985.91
2018-09-04T15:01:45.208Z,100970.91
2018-09-04T15:04:13.429Z,100971.55
2018-09-04T15:06:41.647Z,100973.83
2018-09-04T15:09:09.880Z,100974.73
2018-09-04T15:11:38.104Z,100978.16
2018-09-04T15:14:06.399Z,100976.14
2018-09-04T15:16:34.616Z,100973.06
2018-09-04T15:19:03.004Z,100976.78
2018-09-04T15:21:31.196Z,100976.48
2018-09-04T15:23:59.454Z,100974.39
2018-09-04T15:26:27.703Z,100981.36
2018-09-04T15:28:55.940Z,100982.81
2018-09-04T15:31:24.167Z,100976.34
2018-09-04T15:33:52.423Z,100981.27
2018-09-04T15:36:20.659Z,100976.32
2018-09-04T15:38:49.951Z,100979.58
2018-09-04T15:41:18.181Z,100970.21
2018-09-04T15:43:46.439Z,100971.15
2018-09-04T15:46:14.676Z,100982.13
2018-09-04T15:48:42.914Z,100981.20
2018-09-04T15:51:11.200Z,100988.27
2018-09-04T15:53:45.892Z,100983.84
2018-09-04T15:56:14.535Z,100982.34
2018-09-04T15:58:42.784Z,100986.98
2018-09-04T16:01:11.029Z,100986.45
2018-09-04T16:03:39.275Z,100988.17
2018-09-04T16:06:07.520Z,100984.69
2018-09-04T16:08:35.745Z,100988.59
2018-09-04T16:11:07.071Z,100982.45
2018-09-04T16:13:35.329Z,100986.17
2018-09-04T16:16:03.581Z,100985.60
2018-09-04T16:18:32.314Z,100986.61
2018-09-04T16:21:00.712Z,100983.50
2018-09-04T16:23:28.940Z,100981.56
2018-09-04T16:25:57.376Z,100980.97
2018-09-04T16:28:25.836Z,100981.56
2018-09-04T16:30:54.127Z,100984.23
2018-09-04T16:33:22.351Z,100982.92
2018-09-04T16:35:50.684Z,100982.23
2018-09-04T16:38:18.904Z,100981.21
2018-09-04T16:40:47.145Z,100982.53
2018-09-04T16:43:15.380Z,100983.38
2018-09-04T16:45:43.633Z,100986.98
2018-09-04T16:48:11.853Z,100988.17
2018-09-04T16:50:40.120Z,100992.34
2018-09-04T16:53:08.388Z,100990.30
2018-09-04T16:55:36.632Z,100986.14
2018-09-04T16:58:05.225Z,100991.33
2018-09-04T17:00:33.456Z,100988.46
2018-09-04T17:03:01.975Z,100992.68
2018-09-04T17:05:30.227Z,100992.80
2018-09-04T17:07:58.473Z,100997.56
2018-09-04T17:10:26.824Z,100991.44
2018-09-04T17:12:55.162Z,100996.86
2018-09-04T17:15:23.345Z,100999.64
2018-09-04T17:17:51.572Z,101002.11
2018-09-04T17:20:19.815Z,100999.37
2018-09-04T17:22:48.715Z,101006.27
2018-09-04T17:25:16.972Z,101005.02
2018-09-04T17:27:46.292Z,101005.47
2018-09-04T17:30:14.533Z,101012.12
2018-09-04T17:32:42.758Z,101013.73
2018-09-04T17:35:11.087Z,101018.12
2018-09-04T17:37:39.361Z,101009.50
2018-09-04T17:40:07.744Z,101011.39
2018-09-04T17:42:36.272Z,101013.55
2018-09-04T17:45:04.558Z,101016.85
2018-09-04T17:47:32.853Z,101018.38
2018-09-04T17:50:01.112Z,101019.84
2018-09-04T17:52:29.376Z,101011.17
2018-09-04T17:54:57.673Z,101015.78
2018-09-04T17:57:25.960Z,101019.01
2018-09-04T17:59:54.196Z,101020.19
2018-09-04T18:02:22.480Z,101025.30
2018-09-04T18:04:50.721Z,101031.66
2018-09-04T18:07:18.960Z,101029.41
2018-09-04T18:09:47.265Z,101032.30
2018-09-04T18:12:15.578Z,101039.25
2018-09-04T18:14:43.823Z,101027.77
2018-09-04T18:17:12.160Z,101043.73
2018-09-04T18:19:40.388Z,101044.53
2018-09-04T18:22:08.655Z,101049.41
2018-09-04T18:24:36.884Z,101054.79
2018-09-04T18:27:05.150Z,101052.06
2018-09-04T18:29:33.464Z,101056.77
2018-09-04T18:32:02.177Z,101056.41
2018-09-04T18:34:30.410Z,101056.20
2018-09-04T18:36:59.115Z,101065.81
2018-09-04T18:39:27.441Z,101074.36
2018-09-04T18:41:55.702Z,101075.44
2018-09-04T18:44:23.912Z,101077.29
2018-09-04T18:46:52.167Z,101076.13
2018-09-04T18:49:20.548Z,101087.64
2018-09-04T18:51:48.803Z,101091.27
2018-09-04T18:54:17.055Z,101091.82
2018-09-04T18:56:45.423Z,101096.95
2018-09-04T18:59:13.712Z,101099.05
2018-09-04T19:01:41.944Z,101103.02
2018-09-04T19:04:10.187Z,101105.83
2018-09-04T19:06:38.529Z,101105.69
2018-09-04T19:09:07.492Z,101110.46
2018-09-04T19:11:35.776Z,101109.55
2018-09-04T19:14:04.110Z,101114.26
2018-09-04T19:16:32.315Z,101116.50
2018-09-04T19:19:00.616Z,101117.45
2018-09-04T19:21:28.882Z,101117.55
2018-09-04T19:23:57.186Z,101105.77
2018-09-04T19:26:25.457Z,101114.30
2018-09-04T19:28:53.672Z,101118.27
2018-09-04T19:31:21.913Z,101122.36
2018-09-04T19:33:50.358Z,101123.15
2018-09-04T19:36:18.976Z,101124.72
2018-09-04T19:38:47.216Z,101120.47
2018-09-04T19:41:15.448Z,101133.09
2018-09-04T19:43:43.692Z,101122.31
2018-09-04T19:46:11.926Z,101133.11
2018-09-04T19:48:40.180Z,101129.47
2018-09-04T19:51:08.405Z,101134.33
2018-09-04T19:53:36.672Z,101136.20
2018-09-04T19:56:06.284Z,101141.48
2018-09-04T19:58:35.334Z,101136.78
2018-09-04T20:01:04.688Z,101139.19
2018-09-04T20:03:33.989Z,101134.62
2018-09-04T20:06:03.480Z,101136.23
2018-09-04T20:08:32.928Z,101132.67
2018-09-04T20:11:02.103Z,101137.85
2018-09-04T20:13:32.322Z,101134.42
2018-09-04T20:16:01.147Z,101139.76
2018-09-04T20:18:30.507Z,101144.73
2018-09-04T20:20:59.801Z,101142.64
2018-09-04T20:23:28.975Z,101144.02
2018-09-04T20:25:58.064Z,101141.56
2018-09-04T20:28:27.157Z,101143.95
2018-09-04T20:30:56.349Z,101145.00
2018-09-04T20:33:25.689Z,101151.63
2018-09-04T20:35:54.944Z,101152.30
2018-09-04T20:38:23.749Z,101157.22
2018-09-04T20:40:53.279Z,101156.54
2018-09-04T20:43:23.199Z,101155.34
2018-09-04T20:45:51.879Z,101156.34
2018-09-04T20:48:20.597Z,101158.27
2018-09-04T20:50:49.012Z,101158.95
2018-09-04T20:53:17.297Z,101152.77
2018-09-04T20:55:45.513Z,101152.50
2018-09-04T20:58:25.196Z,101156.89
2018-09-04T21:01:04.695Z,101152.28
2018-09-04T21:03:44.333Z,101161.73
2018-09-04T21:06:23.855Z,101157.17
2018-09-04T21:09:00.984Z,101163.84
2018-09-04T21:11:29.213Z,101162.16
2018-09-04T21:13:57.465Z,101157.80
2018-09-04T21:16:25.677Z,101166.07
2018-09-04T21:18:53.911Z,101162.66
2018-09-04T21:21:22.179Z,101165.39
2018-09-04T21:23:50.432Z,101166.86
2018-09-04T21:26:18.633Z,101161.80
2018-09-04T21:28:46.927Z,101165.70
2018-09-04T21:31:15.137Z,101167.87
2018-09-04T21:33:43.368Z,101167.49
2018-09-04T21:36:11.594Z,101172.07
2018-09-04T21:38:39.800Z,101172.59
2018-09-04T21:41:08.028Z,101172.61
2018-09-04T21:43:36.235Z,101176.98
2018-09-04T21:46:04.476Z,101173.33
2018-09-04T21:48:32.666Z,101176.99
2018-09-04T21:51:00.903Z,101174.39
2018-09-04T21:53:29.121Z,101183.72
2018-09-04T21:55:57.352Z,101185.09
2018-09-04T21:58:25.563Z,101184.48
2018-09-04T22:00:53.800Z,101188.04
2018-09-04T22:03:22.020Z,101193.98
2018-09-04T22:05:50.252Z,101190.67
2018-09-04T22:08:18.480Z,101196.47
2018-09-04T22:10:46.716Z,101192.19
2018-09-04T22:13:14.984Z,101194.95
2018-09-04T22:15:43.163Z,101194.16
2018-09-04T22:18:11.360Z,101200.92
2018-09-04T22:20:39.592Z,101199.42
2018-09-04T22:23:07.852Z,101201.42
2018-09-04T22:25:36.136Z,101205.27
2018-09-04T22:28:04.356Z,101206.95
2018-09-04T22:30:32.598Z,101203.48
2018-09-04T22:33:00.828Z,101197.32
2018-09-04T22:35:29.072Z,101203.23
2018-09-04T22:37:57.284Z,101206.22
2018-09-04T22:40:25.507Z,101203.98
2018-09-04T22:42:53.720Z,101205.61
2018-09-04T22:45:21.947Z,101206.05
2018-09-04T22:47:50.172Z,101212.45
2018-09-04T22:50:23.870Z,101208.07
2018-09-04T22:52:52.088Z,101205.95
2018-09-04T22:55:20.369Z,101212.06
2018-09-04T22:57:48.572Z,101213.76
2018-09-04T23:00:17.056Z,101214.05
2018-09-04T23:02:45.273Z,101216.72
2018-09-04T23:05:13.916Z,101216.37
2018-09-04T23:07:42.120Z,101216.13
2018-09-04T23:10:10.344Z,101218.73
2018-09-04T23:12:38.575Z,101215.22
2018-09-04T23:15:06.800Z,101217.08
2018-09-04T23:17:35.040Z,101216.29
2018-09-04T23:20:03.264Z,101211.88
2018-09-04T23:22:31.486Z,101214.41
2018-09-04T23:24:59.711Z,101216.59
2018-09-04T23:27:27.938Z,101215.64
2018-09-04T23:29:56.194Z,101216.94
2018-09-04T23:32:24.443Z,101215.30
2018-09-04T23:34:52.648Z,101214.15
2018-09-04T23:37:20.876Z,101211.98
2018-09-04T23:39:49.084Z,101209.16
2018-09-04T23:42:17.338Z,101203.72
2018-09-04T23:44:45.537Z,101211.14
2018-09-04T23:47:13.787Z,101206.48
2018-09-04T23:49:42.016Z,101208.80
2018-09-04T23:52:10.256Z,101204.55
2018-09-04T23:54:38.475Z,101205.02
2018-09-04T23:57:06.693Z,101210.20
2018-09-04T23:59:34.898Z,101209.32
